createdAt,value
2019-01-30T00:00:16.204Z,13.77
2019-01-30T00:03:19.559Z,13.47
2019-01-30T00:06:23.013Z,13.93
2019-01-30T00:09:26.404Z,11.17
2019-01-30T00:12:29.760Z,9.53
2019-01-30T00:15:34.099Z,9.93
2019-01-30T00:18:49.893Z,10.53
2019-01-30T00:21:53.263Z,8.53
2019-01-30T00:24:56.639Z,12.07
2019-01-30T00:28:00.003Z,12.43
2019-01-30T00:31:03.378Z,10.73
2019-01-30T00:34:06.742Z,10.40
2019-01-30T00:37:10.139Z,12.83
2019-01-30T00:40:15.836Z,9.80
2019-01-30T00:43:19.486Z,9.40
2019-01-30T00:46:22.855Z,9.03
2019-01-30T00:49:26.226Z,7.93
2019-01-30T00:52:29.598Z,11.57
2019-01-30T00:55:32.995Z,11.77
2019-01-30T00:58:36.353Z,9.40
2019-01-30T01:01:39.725Z,11.73
2019-01-30T01:04:43.093Z,9.30
2019-01-30T01:07:46.903Z,10.60
2019-01-30T01:10:50.264Z,8.60
2019-01-30T01:13:53.643Z,11.30
2019-01-30T01:16:57.013Z,9.63
2019-01-30T01:20:00.690Z,11.03
2019-01-30T01:23:05.480Z,7.67
2019-01-30T01:26:08.832Z,9.63
2019-01-30T01:29:12.278Z,10.20
2019-01-30T01:32:15.659Z,10.13
2019-01-30T01:35:19.185Z,9.90
2019-01-30T01:38:22.558Z,9.23
2019-01-30T01:41:25.932Z,10.00
2019-01-30T01:44:29.312Z,12.33
2019-01-30T01:47:32.696Z,9.50
2019-01-30T01:50:55.412Z,10.90
2019-01-30T01:53:58.790Z,7.83
2019-01-30T01:57:02.157Z,9.70
2019-01-30T02:00:34.952Z,10.20
2019-01-30T02:03:30.125Z,9.43
2019-01-30T02:06:33.505Z,10.17
2019-01-30T02:09:36.884Z,11.07
2019-01-30T02:12:40.328Z,11.00
2019-01-30T02:15:43.701Z,12.07
2019-01-30T02:18:47.079Z,9.50
2019-01-30T02:21:50.443Z,9.00
2019-01-30T02:24:53.839Z,9.10
2019-01-30T02:27:57.386Z,10.17
2019-01-30T02:31:00.769Z,8.60
2019-01-30T02:37:33.398Z,9.13
2019-01-30T02:40:36.795Z,12.83
2019-01-30T02:43:40.165Z,7.63
2019-01-30T02:46:43.555Z,8.20
2019-01-30T02:49:46.919Z,8.40
2019-01-30T02:52:50.296Z,8.13
2019-01-30T02:55:53.692Z,9.03
2019-01-30T02:58:57.306Z,8.80
2019-01-30T03:05:50.969Z,10.47
2019-01-30T03:08:54.320Z,9.03
2019-01-30T03:11:57.705Z,9.67
2019-01-30T03:15:01.078Z,8.57
2019-01-30T03:18:04.525Z,8.23
2019-01-30T03:21:07.899Z,8.03
2019-01-30T03:24:11.266Z,11.47
2019-01-30T03:27:14.638Z,8.07
2019-01-30T03:30:57.919Z,9.27
2019-01-30T03:34:01.300Z,8.90
2019-01-30T03:37:04.738Z,8.03
2019-01-30T03:40:48.218Z,8.30
2019-01-30T03:43:51.590Z,7.43
2019-01-30T03:46:55.054Z,8.53
2019-01-30T03:49:58.445Z,10.30
2019-01-30T03:53:01.814Z,7.00
2019-01-30T03:56:05.257Z,7.77
2019-01-30T03:59:08.630Z,7.60
2019-01-30T04:02:11.989Z,8.63
2019-01-30T04:05:15.436Z,8.60
2019-01-30T04:08:18.821Z,9.80
2019-01-30T04:11:22.175Z,9.03
2019-01-30T04:14:44.899Z,7.93
2019-01-30T04:17:48.337Z,9.53
2019-01-30T04:20:51.711Z,7.33
2019-01-30T04:23:55.100Z,8.23
2019-01-30T04:26:58.467Z,6.37
2019-01-30T04:30:01.839Z,8.17
2019-01-30T04:33:05.277Z,8.10
2019-01-30T04:36:08.750Z,8.57
2019-01-30T04:39:12.183Z,8.30
2019-01-30T04:42:15.543Z,6.07
2019-01-30T04:45:58.856Z,9.07
2019-01-30T04:49:21.569Z,8.13
2019-01-30T04:52:24.948Z,13.67
2019-01-30T04:55:28.319Z,7.67
2019-01-30T04:58:31.694Z,8.57
2019-01-30T05:01:35.070Z,7.20
2019-01-30T05:04:38.510Z,7.97
2019-01-30T05:07:41.956Z,8.80
2019-01-30T05:10:45.334Z,8.20
2019-01-30T05:13:48.709Z,9.87
2019-01-30T05:16:52.094Z,12.63
2019-01-30T05:19:55.453Z,9.20
2019-01-30T05:22:58.838Z,13.50
2019-01-30T05:26:02.289Z,8.70
2019-01-30T05:29:05.724Z,7.27
2019-01-30T05:32:09.108Z,9.37
2019-01-30T05:38:41.777Z,8.27
2019-01-30T05:41:45.147Z,10.20
2019-01-30T05:44:48.510Z,9.63
2019-01-30T05:47:51.896Z,9.70
2019-01-30T05:50:55.271Z,6.73
2019-01-30T05:53:58.676Z,11.43
2019-01-30T05:57:02.057Z,9.80
2019-01-30T06:00:45.330Z,8.20
2019-01-30T06:03:48.708Z,9.10
2019-01-30T06:06:52.100Z,11.10
2019-01-30T06:09:55.468Z,17.80
2019-01-30T06:13:18.182Z,9.37
2019-01-30T06:16:21.597Z,8.97
2019-01-30T06:19:24.932Z,8.33
2019-01-30T06:22:47.720Z,9.67
2019-01-30T06:26:10.446Z,10.67
2019-01-30T06:29:13.832Z,10.10
2019-01-30T06:32:21.901Z,12.27
2019-01-30T06:35:41.648Z,11.97
2019-01-30T06:38:45.033Z,11.80
2019-01-30T06:41:49.309Z,10.17
2019-01-30T06:44:52.689Z,12.17
2019-01-30T06:48:15.440Z,10.93
2019-01-30T06:51:18.815Z,11.03
2019-01-30T06:54:34.727Z,11.73
2019-01-30T06:57:38.171Z,13.10
2019-01-30T07:00:41.547Z,12.73
2019-01-30T07:03:44.976Z,13.10
2019-01-30T07:06:48.360Z,15.13
2019-01-30T07:09:51.732Z,17.93
2019-01-30T07:12:55.170Z,13.00
2019-01-30T07:15:58.546Z,16.37
2019-01-30T07:19:01.922Z,16.23
2019-01-30T07:22:05.281Z,11.17
2019-01-30T07:25:29.447Z,14.27
2019-01-30T07:28:32.814Z,15.20
2019-01-30T07:31:36.196Z,12.53
2019-01-30T07:34:39.590Z,15.73
2019-01-30T07:37:42.954Z,13.20
2019-01-30T07:40:46.341Z,14.83
2019-01-30T07:43:49.705Z,14.87
2019-01-30T07:46:53.086Z,14.70
2019-01-30T07:49:56.467Z,14.73
2019-01-30T07:52:59.901Z,14.77
2019-01-30T07:56:03.481Z,13.97
2019-01-30T07:59:06.942Z,14.70
2019-01-30T08:02:13.814Z,15.03
2019-01-30T08:05:17.268Z,14.87
2019-01-30T08:08:20.634Z,14.67
2019-01-30T08:11:24.019Z,17.33
2019-01-30T08:14:27.404Z,16.93
2019-01-30T08:17:30.817Z,17.90
2019-01-30T08:20:34.188Z,16.00
2019-01-30T08:23:38.540Z,16.23
2019-01-30T08:26:41.961Z,16.63
2019-01-30T08:29:45.661Z,14.80
2019-01-30T08:32:49.511Z,19.50
2019-01-30T08:35:52.881Z,17.03
2019-01-30T08:38:56.251Z,17.63
2019-01-30T08:41:59.635Z,17.10
2019-01-30T08:45:03.271Z,16.50
2019-01-30T08:48:06.648Z,16.13
2019-01-30T08:51:10.086Z,15.93
2019-01-30T08:54:13.457Z,18.83
2019-01-30T08:57:17.089Z,16.80
2019-01-30T09:00:25.700Z,17.60
2019-01-30T09:03:29.193Z,19.73
2019-01-30T09:06:32.540Z,17.70
2019-01-30T09:09:35.911Z,19.80
2019-01-30T09:12:39.348Z,17.47
2019-01-30T09:15:42.731Z,16.93
2019-01-30T09:18:46.107Z,18.47
2019-01-30T09:21:49.475Z,15.70
2019-01-30T09:24:52.858Z,15.70
2019-01-30T09:27:56.264Z,15.67
2019-01-30T09:30:59.615Z,18.07
2019-01-30T09:34:02.998Z,16.50
2019-01-30T09:37:06.395Z,14.37
2019-01-30T09:40:12.920Z,16.60
2019-01-30T09:43:23.233Z,15.40
2019-01-30T09:46:26.610Z,14.27
2019-01-30T09:49:29.983Z,16.40
2019-01-30T09:52:33.353Z,19.47
2019-01-30T09:55:36.739Z,15.63
2019-01-30T09:58:40.115Z,18.57
2019-01-30T10:01:43.555Z,15.93
2019-01-30T10:04:46.872Z,17.03
2019-01-30T10:07:50.238Z,14.80
2019-01-30T10:10:53.620Z,17.63
2019-01-30T10:13:57.002Z,16.57
2019-01-30T10:17:00.357Z,18.13
2019-01-30T10:20:04.905Z,14.07
2019-01-30T10:23:08.356Z,17.93
2019-01-30T10:26:11.738Z,14.33
2019-01-30T10:29:15.124Z,17.00
2019-01-30T10:32:18.503Z,17.20
2019-01-30T10:35:21.950Z,15.13
2019-01-30T10:38:25.363Z,16.50
2019-01-30T10:41:28.725Z,16.83
2019-01-30T10:44:32.212Z,16.47
2019-01-30T10:47:35.627Z,15.70
2019-01-30T10:50:39.044Z,15.97
2019-01-30T10:53:42.434Z,16.67
2019-01-30T10:56:45.818Z,15.47
2019-01-30T10:59:49.187Z,17.93
2019-01-30T11:02:52.620Z,18.90
2019-01-30T11:05:56.296Z,16.23
2019-01-30T11:08:59.659Z,15.70
2019-01-30T11:12:05.073Z,16.50
2019-01-30T11:15:12.095Z,15.70
2019-01-30T11:18:15.531Z,15.90
2019-01-30T11:21:18.908Z,16.43
2019-01-30T11:24:22.266Z,17.10
2019-01-30T11:27:26.609Z,16.77
2019-01-30T11:30:30.006Z,16.97
2019-01-30T11:33:33.369Z,14.80
2019-01-30T11:36:36.748Z,17.67
2019-01-30T11:39:40.198Z,16.10
2019-01-30T11:42:43.740Z,14.90
2019-01-30T11:45:47.359Z,16.63
2019-01-30T11:48:56.380Z,14.90
2019-01-30T11:51:55.874Z,15.87
2019-01-30T11:54:59.557Z,16.53
2019-01-30T11:58:03.021Z,16.57
2019-01-30T12:01:06.377Z,16.17
2019-01-30T12:04:17.729Z,15.40
2019-01-30T12:07:15.887Z,16.10
2019-01-30T12:10:19.265Z,17.87
2019-01-30T12:13:22.754Z,17.47
2019-01-30T12:16:26.107Z,16.13
2019-01-30T12:19:29.487Z,16.33
2019-01-30T12:22:32.874Z,16.10
2019-01-30T12:25:36.301Z,16.27
2019-01-30T12:28:40.648Z,17.23
2019-01-30T12:31:44.031Z,15.80
2019-01-30T12:34:47.402Z,15.67
2019-01-30T12:37:50.857Z,15.93
2019-01-30T12:40:54.221Z,62.67
2019-01-30T12:43:57.596Z,18.60
2019-01-30T12:47:01.976Z,22.07
2019-01-30T12:50:08.220Z,35.77
2019-01-30T12:53:11.707Z,31.77
2019-01-30T12:56:15.090Z,21.60
2019-01-30T12:59:18.488Z,23.43
2019-01-30T13:02:28.001Z,37.70
2019-01-30T13:05:31.613Z,21.57
2019-01-30T13:08:41.948Z,29.50
2019-01-30T13:11:45.365Z,42.37
2019-01-30T13:14:48.739Z,20.33
2019-01-30T13:17:59.553Z,27.67
2019-01-30T13:21:02.917Z,31.07
2019-01-30T13:24:06.650Z,26.50
2019-01-30T13:27:10.257Z,26.97
2019-01-30T13:30:19.925Z,36.00
2019-01-30T13:33:23.324Z,38.47
2019-01-30T13:36:26.696Z,42.97
2019-01-30T13:39:35.100Z,24.77
2019-01-30T13:42:38.474Z,26.43
2019-01-30T13:45:41.863Z,18.23
2019-01-30T13:48:45.263Z,26.50
2019-01-30T13:51:48.641Z,21.03
2019-01-30T13:54:52.087Z,19.60
2019-01-30T13:57:55.546Z,21.00
2019-01-30T14:00:58.937Z,19.03
2019-01-30T14:04:02.414Z,23.13
2019-01-30T14:07:05.802Z,20.13
2019-01-30T14:10:28.831Z,20.00
2019-01-30T14:13:32.203Z,17.90
2019-01-30T14:16:35.614Z,21.40
2019-01-30T14:19:38.972Z,21.63
2019-01-30T14:22:42.350Z,18.03
2019-01-30T14:26:05.061Z,23.70
2019-01-30T14:29:08.431Z,23.37
2019-01-30T14:32:11.811Z,18.53
2019-01-30T14:35:15.197Z,24.33
2019-01-30T14:38:18.565Z,26.77
2019-01-30T14:41:22.078Z,19.63
2019-01-30T14:44:25.710Z,19.50
2019-01-30T14:47:29.078Z,21.20
2019-01-30T14:50:32.528Z,21.23
2019-01-30T14:53:35.932Z,27.73
2019-01-30T14:56:58.644Z,19.53
2019-01-30T15:00:02.107Z,19.33
2019-01-30T15:03:47.448Z,18.83
2019-01-30T15:06:50.692Z,21.53
2019-01-30T15:09:54.070Z,26.63
2019-01-30T15:12:57.606Z,20.53
2019-01-30T15:16:00.985Z,19.13
2019-01-30T15:22:33.740Z,20.77
2019-01-30T15:25:37.105Z,25.30
2019-01-30T15:28:40.486Z,22.30
2019-01-30T15:31:43.854Z,21.83
2019-01-30T15:34:47.321Z,20.30
2019-01-30T15:37:50.715Z,23.77
2019-01-30T15:41:13.422Z,22.47
2019-01-30T15:44:16.807Z,20.70
2019-01-30T15:47:20.176Z,21.33
2019-01-30T15:51:03.467Z,23.63
2019-01-30T15:54:26.185Z,22.13
2019-01-30T15:57:29.562Z,23.80
2019-01-30T16:01:12.847Z,25.07
2019-01-30T16:04:17.550Z,24.83
2019-01-30T16:07:21.384Z,25.93
2019-01-30T16:10:24.905Z,25.13
2019-01-30T16:13:28.322Z,29.73
2019-01-30T16:16:31.683Z,26.10
2019-01-30T16:19:35.060Z,27.80
2019-01-30T16:22:38.432Z,26.83
2019-01-30T16:25:41.810Z,25.93
2019-01-30T16:28:45.230Z,28.30
2019-01-30T16:31:48.596Z,29.83
2019-01-30T16:34:51.985Z,31.00
2019-01-30T16:37:55.427Z,37.93
2019-01-30T16:40:58.806Z,33.00
2019-01-30T16:44:02.181Z,31.73
2019-01-30T16:47:05.634Z,33.80
2019-01-30T16:50:48.924Z,29.70
2019-01-30T16:53:52.301Z,39.50
2019-01-30T16:56:55.678Z,35.53
2019-01-30T16:59:59.066Z,36.50
2019-01-30T17:03:42.345Z,32.70
2019-01-30T17:06:45.744Z,30.10
2019-01-30T17:10:09.610Z,30.07
2019-01-30T17:13:12.995Z,30.43
2019-01-30T17:16:16.366Z,33.27
2019-01-30T17:19:19.732Z,31.37
2019-01-30T17:22:23.191Z,32.30
2019-01-30T17:25:26.799Z,32.07
2019-01-30T17:28:30.187Z,30.90
2019-01-30T17:31:33.567Z,30.23
2019-01-30T17:34:36.935Z,33.23
2019-01-30T17:37:40.592Z,31.23
2019-01-30T17:41:23.888Z,31.33
2019-01-30T17:44:27.264Z,34.47
2019-01-30T17:47:30.629Z,36.37
2019-01-30T17:50:34.009Z,34.60
2019-01-30T17:53:37.387Z,30.60
2019-01-30T17:56:40.771Z,32.97
2019-01-30T17:59:44.141Z,33.07
2019-01-30T18:02:47.527Z,33.03
2019-01-30T18:05:50.976Z,76.12
2019-01-30T18:08:54.354Z,39.08
2019-01-30T18:11:57.751Z,34.27
2019-01-30T18:15:01.131Z,30.87
2019-01-30T18:18:44.661Z,32.80
2019-01-30T18:21:48.043Z,30.70
2019-01-30T18:24:51.427Z,32.03
2019-01-30T18:27:55.088Z,32.37
2019-01-30T18:30:58.538Z,33.73
2019-01-30T18:34:01.937Z,34.03
2019-01-30T18:37:05.455Z,36.60
2019-01-30T18:40:48.788Z,34.97
2019-01-30T18:43:52.172Z,34.87
2019-01-30T18:46:55.561Z,33.10
2019-01-30T18:49:58.938Z,36.23
2019-01-30T18:53:02.314Z,33.47
2019-01-30T18:56:05.760Z,34.17
2019-01-30T18:59:09.162Z,31.47
2019-01-30T19:02:12.533Z,31.20
2019-01-30T19:05:55.824Z,32.10
2019-01-30T19:08:59.213Z,32.40
2019-01-30T19:12:02.603Z,31.50
2019-01-30T19:15:26.761Z,27.03
2019-01-30T19:18:37.823Z,27.87
2019-01-30T19:21:41.211Z,29.03
2019-01-30T19:24:44.587Z,26.83
2019-01-30T19:27:48.317Z,26.40
2019-01-30T19:30:51.694Z,24.00
2019-01-30T19:33:55.087Z,24.87
2019-01-30T19:37:17.886Z,24.43
2019-01-30T19:40:21.327Z,23.67
2019-01-30T19:43:25.010Z,19.63
2019-01-30T19:46:28.355Z,18.87
2019-01-30T19:49:31.739Z,18.70
2019-01-30T19:52:35.112Z,16.87
2019-01-30T19:55:38.477Z,16.87
2019-01-30T19:58:41.850Z,14.67
2019-01-30T20:01:45.213Z,11.73
2019-01-30T20:04:48.595Z,13.63
2019-01-30T20:07:52.036Z,12.17
2019-01-30T20:10:55.409Z,12.30
2019-01-30T20:13:59.200Z,8.63
2019-01-30T20:17:10.353Z,10.77
2019-01-30T20:20:16.329Z,10.90
2019-01-30T20:23:31.241Z,9.53
2019-01-30T20:26:34.611Z,10.97
2019-01-30T20:29:37.979Z,9.37
2019-01-30T20:32:53.362Z,11.20
2019-01-30T20:35:56.715Z,9.63
2019-01-30T20:39:00.086Z,13.67
2019-01-30T20:42:03.462Z,10.70
2019-01-30T20:45:10.271Z,12.77
2019-01-30T20:48:19.701Z,11.33
2019-01-30T20:51:23.078Z,12.30
2019-01-30T20:54:26.461Z,10.20
2019-01-30T20:57:29.828Z,9.20
2019-01-30T21:00:35.732Z,13.13
2019-01-30T21:03:39.112Z,14.23
2019-01-30T21:06:42.479Z,16.40
2019-01-30T21:09:45.863Z,12.07
2019-01-30T21:12:49.556Z,9.97
2019-01-30T21:15:52.919Z,10.53
2019-01-30T21:18:56.527Z,12.03
2019-01-30T21:21:59.891Z,9.00
2019-01-30T21:25:03.927Z,7.47
2019-01-30T21:28:07.375Z,11.93
2019-01-30T21:31:10.777Z,14.13
2019-01-30T21:34:14.123Z,12.70
2019-01-30T21:37:20.473Z,17.87
2019-01-30T21:40:22.672Z,14.70
2019-01-30T21:43:26.189Z,11.70
2019-01-30T21:46:29.485Z,13.53
2019-01-30T21:49:32.931Z,11.53
2019-01-30T21:52:36.309Z,14.67
2019-01-30T21:55:39.692Z,14.50
2019-01-30T21:58:43.068Z,12.83
2019-01-30T22:01:46.444Z,13.10
2019-01-30T22:04:49.830Z,14.17
2019-01-30T22:08:00.575Z,14.03
2019-01-30T22:10:58.326Z,16.50
2019-01-30T22:14:01.707Z,17.23
2019-01-30T22:17:05.146Z,17.53
2019-01-30T22:20:20.291Z,14.77
2019-01-30T22:23:23.672Z,16.23
2019-01-30T22:26:27.035Z,14.63
2019-01-30T22:29:33.575Z,14.63
2019-01-30T22:32:36.937Z,13.77
2019-01-30T22:35:40.327Z,15.20
2019-01-30T22:38:43.700Z,14.13
2019-01-30T22:41:47.068Z,16.53
2019-01-30T22:44:50.443Z,16.53
2019-01-30T22:47:53.814Z,16.43
2019-01-30T22:50:57.189Z,12.77
2019-01-30T22:54:00.572Z,13.70
2019-01-30T22:57:03.942Z,13.33
2019-01-30T23:00:57.704Z,13.30
2019-01-30T23:04:04.154Z,12.70
2019-01-30T23:07:16.228Z,12.03
2019-01-30T23:10:25.324Z,15.10
2019-01-30T23:13:34.514Z,12.30
2019-01-30T23:16:52.701Z,13.63
2019-01-30T23:19:59.180Z,15.80
2019-01-30T23:23:11.563Z,13.97
2019-01-30T23:26:20.995Z,15.23
2019-01-30T23:29:27.425Z,13.50
2019-01-30T23:32:51.907Z,16.23
2019-01-30T23:36:10.257Z,12.90
2019-01-30T23:39:37.830Z,10.87
2019-01-30T23:42:52.958Z,12.37
2019-01-30T23:46:17.059Z,10.03
2019-01-30T23:49:41.541Z,14.60
2019-01-30T23:53:04.498Z,15.53
2019-01-30T23:56:13.870Z,14.87
2019-01-30T23:59:26.217Z,15.53
